• Join FlightAware (Why Join?)
  • Login
  • US Flag 
02:39AM EDT


 

Airport Tracker/Info


-or-


 

Live Flight TrackerFlight Track Log ✈ CCA1950 ✈ 30-Jun-2013 ✈ ZUUU / CTU - ZSPD / PVG

Flight Track Log - Related Links

Times and Time Zones

All times are in EDT time to prevent confusion due to time zone crossing. See the CCA1950 flight status page for this flight to view local times or setup timezone preferences in your user account.

Time Position Orientation Groundspeed Altitude Reporting Facility
EDT Latitude Longitude Course Direction KTS MPH feet Rate Location/Type
08:51AM 30.6188 104.3517 83° East  Level Estimated
08:52AM 30.6319 104.4867 84° East  Level Estimated
08:53AM 30.6449 104.6217 84° East  Level Estimated
08:54AM 30.6578 104.7567 84° East  Level Estimated
08:55AM 30.6705 104.8918 84° East  Level Estimated
08:56AM 30.6831 105.0269 84° East  Level Estimated
08:57AM 30.6955 105.1620 84° East  Level Estimated
08:58AM 30.7078 105.2972 84° East  Level Estimated
08:59AM 30.7200 105.4324 84° East  Level Estimated
09:00AM 30.7320 105.5677 84° East  Level Estimated
09:01AM 30.7439 105.7029 84° East  Level Estimated
09:02AM 30.7556 105.8382 84° East  Level Estimated
09:03AM 30.7672 105.9736 84° East  Level Estimated
09:04AM 30.7787 106.1089 84° East  Level Estimated
09:05AM 30.7900 106.2443 84° East  Level Estimated
09:06AM 30.8012 106.3798 84° East  Level Estimated
09:07AM 30.8122 106.5153 85° East  Level Estimated
09:08AM 30.8231 106.6508 85° East  Level Estimated
09:09AM 30.8339 106.7863 85° East  Level Estimated
09:10AM 30.8445 106.9219 85° East  Level Estimated
09:11AM 30.8550 107.0574 85° East  Level Estimated
09:12AM 30.8653 107.1931 85° East  Level Estimated
09:13AM 30.8755 107.3287 85° East  Level Estimated
09:14AM 30.8856 107.4644 85° East  Level Estimated
09:15AM 30.8955 107.6001 85° East  Level Estimated
09:16AM 30.9053 107.7358 85° East  Level Estimated
09:17AM 30.9149 107.8716 85° East  Level Estimated
09:18AM 30.9244 108.0074 85° East  Level Estimated
09:19AM 30.9337 108.1432 85° East  Level Estimated
09:20AM 30.9429 108.2790 85° East  Level Estimated
09:21AM 30.9520 108.4149 86° East  Level Estimated
09:22AM 30.9609 108.5508 86° East  Level Estimated
09:23AM 30.9697 108.6867 86° East  Level Estimated
09:24AM 30.9783 108.8226 86° East  Level Estimated
09:25AM 30.9868 108.9586 86° East  Level Estimated
09:26AM 30.9951 109.0946 86° East  Level Estimated
09:27AM 31.0033 109.2306 86° East  Level Estimated
09:28AM 31.0114 109.3667 86° East  Level Estimated
09:29AM 31.0193 109.5027 86° East  Level Estimated
09:30AM 31.0271 109.6388 86° East  Level Estimated
09:31AM 31.0347 109.7749 86° East  Level Estimated
09:32AM 31.0422 109.9110 86° East  Level Estimated
09:33AM 31.0496 110.0472 86° East  Level Estimated
09:34AM 31.0568 110.1833 86° East  Level Estimated
09:35AM 31.0639 110.3195 87° East  Level Estimated
09:36AM 31.0708 110.4557 87° East  Level Estimated
09:37AM 31.0776 110.5920 87° East  Level Estimated
09:38AM 31.0842 110.7282 87° East  Level Estimated
09:39AM 31.0907 110.8645 87° East  Level Estimated
09:40AM 31.0970 111.0008 87° East  Level Estimated
09:41AM 31.1032 111.1371 87° East  Level Estimated
09:42AM 31.1093 111.2734 87° East  Level Estimated
09:43AM 31.1152 111.4097 87° East  Level Estimated
09:44AM 31.1210 111.5461 87° East  Level Estimated
09:45AM 31.1266 111.6824 87° East  Level Estimated
09:46AM 31.1321 111.8188 87° East  Level Estimated
09:47AM 31.1374 111.9552 87° East  Level Estimated
09:48AM 31.1426 112.0917 87° East  Level Estimated
09:49AM 31.1477 112.2281 87° East  Level Estimated
09:50AM 31.1526 112.3645 88° East  Level Estimated
09:51AM 31.1574 112.5010 88° East  Level Estimated
09:52AM 31.1620 112.6375 88° East  Level Estimated
09:53AM 31.1665 112.7740 88° East  Level Estimated
09:54AM 31.1708 112.9105 88° East  Level Estimated
09:55AM 31.1750 113.0470 88° East  Level Estimated
09:56AM 31.1790 113.1835 88° East  Level Estimated
09:57AM 31.1829 113.3200 88° East  Level Estimated
09:58AM 31.1867 113.4566 88° East  Level Estimated
09:59AM 31.1903 113.5931 88° East  Level Estimated
10:00AM 31.1938 113.7297 88° East  Level Estimated
10:01AM 31.1971 113.8663 88° East  Level Estimated
10:02AM 31.2003 114.0029 88° East  Level Estimated
10:03AM 31.2033 114.1395 88° East  Level Estimated
10:04AM 31.2062 114.2761 89° East  Level Estimated
10:05AM 31.2090 114.4127 89° East  Level Estimated
10:06AM 31.2116 114.5493 89° East  Level Estimated
10:07AM 31.2140 114.6859 89° East  Level Estimated
10:08AM 31.2164 114.8225 89° East  Level Estimated
10:09AM 31.2185 114.9592 89° East  Level Estimated
10:10AM 31.2206 115.0958 89° East  Level Estimated
10:11AM 31.2224 115.2325 89° East  Level Estimated
10:12AM 31.2242 115.3691 89° East  Level Estimated
10:13AM 31.2258 115.5058 89° East  Level Estimated
10:14AM 31.2272 115.6425 89° East  Level Estimated
10:15AM 31.2285 115.7792 89° East  Level Estimated
10:16AM 31.2297 115.9158 89° East  Level Estimated
10:17AM 31.2307 116.0525 89° East  Level Estimated
10:18AM 31.2316 116.1892 90° East  Level Estimated
10:19AM 31.2323 116.3259 90° East  Level Estimated
10:20AM 31.2329 116.4625 90° East  Level Estimated
10:21AM 31.2333 116.5992 90° East  Level Estimated
10:22AM 31.2336 116.7359 90° East  Level Estimated
10:23AM 31.2337 116.8726 90° East  Level Estimated
10:24AM 31.2337 117.0093 90° East  Level Estimated
10:25AM 31.2336 117.1460 90° East  Level Estimated
10:26AM 31.2333 117.2827 90° East  Level Estimated
10:27AM 31.2329 117.4194 90° East  Level Estimated
10:28AM 31.2323 117.5561 90° East  Level Estimated
10:29AM 31.2316 117.6927 90° East  Level Estimated
10:30AM 31.2307 117.8294 90° East  Level Estimated
10:31AM 31.2297 117.9661 90° East  Level Estimated
10:32AM 31.2286 118.1028 91° East  Level Estimated
10:33AM 31.2273 118.2394 91° East  Level Estimated
10:34AM 31.2258 118.3761 91° East  Level Estimated
10:35AM 31.2243 118.5128 91° East  Level Estimated
10:36AM 31.2225 118.6494 91° East  Level Estimated
10:37AM 31.2206 118.7861 91° East  Level Estimated
10:38AM 31.2186 118.9227 91° East  Level Estimated
10:39AM 31.2165 119.0594 91° East  Level Estimated
10:40AM 31.2141 119.1960 91° East  Level Estimated
10:41AM 31.2117 119.3326 91° East  Level Estimated
10:42AM 31.2091 119.4692 91° East  Level Estimated
10:43AM 31.2064 119.6059 91° East  Level Estimated
10:44AM 31.2035 119.7424 91° East  Level Estimated
10:45AM 31.2004 119.8791 91° East  Level Estimated
10:46AM 31.1973 120.0156 92° East  Level Estimated
10:47AM 31.1940 120.1522 92° East  Level Estimated
10:48AM 31.1905 120.2888 92° East  Level Estimated
10:49AM 31.1869 120.4253 92° East  Level Estimated
10:50AM 31.1831 120.5619 92° East  Level Estimated
10:51AM 31.1792 120.6984 92° East  Level Estimated
10:52AM 31.1752 120.8350 92° East  Level Estimated
10:53AM 31.1710 120.9715 92° East  Level Estimated
10:54AM 31.1667 121.1080 92° East  Level Estimated
10:55AM 31.1622 121.2445 92° East  Level Estimated
10:56AM 31.1576 121.3809 92° East  Level Estimated
10:56AM 31.5420 120.4860 92° East 406 467 19,500  Level FlightAware
10:57AM 31.1528 121.5174 92° East  Level Estimated
10:57AM 31.5050 120.6090 109° East 391 450 17,500  Level FlightAware
10:58AM 31.1479 121.6538 92° East  Level Estimated
10:58AM 31.4820 120.6860 109° East 383 441 16,200  Level FlightAware
11:01AM 31.3895 120.9915 109° East  Level Estimated
11:02AM 31.3502 121.1205 110° East  Level Estimated
11:03AM 31.3108 121.2493 110° East  Level Estimated
11:04AM 31.2713 121.3780 110° East  Level Estimated
11:05AM 31.2316 121.5066 110° East  Level Estimated
11:06AM 31.1918 121.6350 110° East  Level Estimated
11:07AM 31.1518 121.7634 110° East  Level Estimated
11:08AM 31.1428 121.7924 110° East  Level Estimated
11:09AM 31.1428 121.7924 221° Southwest  Level Estimated
11:10AM 31.1428 121.7924 221° Southwest  Level Estimated
11:11AM 31.1428 121.7924 221° Southwest  Level Estimated
11:11AM 31.3450 121.7110 221° Southwest 171 197 3,900  Level FlightAware
11:13AM 31.1428 121.7924 161° South  Level Estimated
11:13AM 31.2350 121.7530 221° Southwest 157 181 1,700  Level FlightAware
11:14AM 31.1428 121.7924 221° Southwest  Level Estimated
11:14AM 31.2290 121.7550 164° South 157 181 1,600  Level FlightAware
11:14AM 31.2040 121.7650 161° South 157 181 1,400 -300 Descending FlightAware
11:17AM 31.1428 121.7924 159° South  Level Estimated